Time;durP1;ratioP1;P1;durP2;ratioP2;P2;SDS_P1;SDS_P2;PMS_P1;PMS_P2;Temp;Humidity;BMP_temperature;BMP_pressure;BME280_temperature;BME280_humidity;BME280_pressure;Samples;Min_cycle;Max_cycle;Signal;HPM_P1;HPM_P2
2022/02/19 00:00:07;;;;;;;3.00;2.70;;;;;;;;;;6216305;23;20103;-71
2022/02/19 00:02:40;;;;;;;2.78;2.50;;;;;;;;;;6216582;23;20019;-72
2022/02/19 00:05:07;;;;;;;1.73;1.63;;;;;;;;;;6216311;23;20467;-71
2022/02/19 00:07:33;;;;;;;2.97;2.75;;;;;;;;;;6216296;23;20435;-73
2022/02/19 00:09:59;;;;;;;4.18;3.60;;;;;;;;;;6243127;23;20067;-71
2022/02/19 00:12:24;;;;;;;3.92;3.63;;;;;;;;;;6243162;23;20012;-70
2022/02/19 00:14:52;;;;;;;3.17;2.92;;;;;;;;;;6243625;22;20012;-71
2022/02/19 00:17:21;;;;;;;3.75;2.78;;;;;;;;;;6215665;23;20019;-71
2022/02/19 00:19:47;;;;;;;2.92;2.65;;;;;;;;;;6216430;23;20012;-72
2022/02/19 00:22:13;;;;;;;2.53;2.38;;;;;;;;;;6191124;23;20020;-70
2022/02/19 00:24:39;;;;;;;3.17;2.97;;;;;;;;;;6242850;22;20087;-71
2022/02/19 00:27:05;;;;;;;3.22;2.78;;;;;;;;;;6242386;23;20098;-70
2022/02/19 00:29:30;;;;;;;3.00;2.80;;;;;;;;;;6243373;23;20360;-72
2022/02/19 00:31:56;;;;;;;4.28;2.95;;;;;;;;;;6216378;23;20095;-71
2022/02/19 00:34:23;;;;;;;6.63;2.20;;;;;;;;;;6217102;23;20020;-70
2022/02/19 01:31:24;;;;;;;3.53;2.60;;;;;;;;;;6211243;23;20028;-72
2022/02/19 01:33:52;;;;;;;2.75;2.55;;;;;;;;;;6161075;23;20239;-74
2022/02/19 01:36:17;;;;;;;2.95;2.75;;;;;;;;;;6135511;23;20107;-73
2022/02/19 01:38:44;;;;;;;3.20;2.35;;;;;;;;;;6136676;23;20406;-74
2022/02/19 01:41:10;;;;;;;3.00;2.67;;;;;;;;;;6185857;23;20008;-74
2022/02/19 01:43:36;;;;;;;2.50;2.40;;;;;;;;;;6161334;23;20091;-73
2022/02/19 01:46:04;;;;;;;2.80;2.60;;;;;;;;;;6137029;23;20019;-74
2022/02/19 01:48:30;;;;;;;2.80;2.60;;;;;;;;;;6185186;23;20020;-73
2022/02/19 01:50:56;;;;;;;3.67;3.05;;;;;;;;;;6186019;23;20030;-73
2022/02/19 01:53:23;;;;;;;2.97;2.70;;;;;;;;;;6186012;23;20023;-73
2022/02/19 01:55:58;;;;;;;3.97;3.22;;;;;;;;;;6164723;23;20012;-74
2022/02/19 01:58:43;;;;;;;4.75;3.88;;;;;;;;;;6170050;23;20012;-73
2022/02/19 02:01:22;;;;;;;5.07;4.57;;;;;;;;;;6187180;23;20091;-73
2022/02/19 02:04:06;;;;;;;4.85;4.45;;;;;;;;;;6191164;23;20449;-73
2022/02/19 02:06:33;;;;;;;4.45;4.05;;;;;;;;;;6162031;23;20020;-71
2022/02/19 02:09:02;;;;;;;4.95;3.60;;;;;;;;;;6161810;23;20493;-73
2022/02/19 02:11:34;;;;;;;4.00;2.88;;;;;;;;;;6211236;23;20016;-72
2022/02/19 02:14:00;;;;;;;3.50;3.20;;;;;;;;;;6185414;23;20012;-72
2022/02/19 02:16:37;;;;;;;3.28;2.97;;;;;;;;;;6185573;23;20005;-73
2022/02/19 02:19:08;;;;;;;3.40;3.10;;;;;;;;;;6161244;23;20488;-75
2022/02/19 02:21:39;;;;;;;2.53;2.42;;;;;;;;;;6161185;23;20036;-73
2022/02/19 02:24:05;;;;;;;3.40;3.10;;;;;;;;;;6185299;23;20067;-75
2022/02/19 02:26:32;;;;;;;3.40;2.97;;;;;;;;;;6185313;23;20078;-73
2022/02/19 02:28:58;;;;;;;4.32;3.35;;;;;;;;;;6164552;23;20027;-73
2022/02/19 02:31:24;;;;;;;4.05;3.10;;;;;;;;;;6215146;23;20016;-73
2022/02/19 02:33:50;;;;;;;5.93;3.80;;;;;;;;;;6216336;23;20015;-74
2022/02/19 02:36:17;;;;;;;4.07;3.78;;;;;;;;;;6191667;23;20420;-73
2022/02/19 02:38:53;;;;;;;3.40;3.10;;;;;;;;;;6241649;23;20016;-73
2022/02/19 02:41:23;;;;;;;4.75;3.97;;;;;;;;;;6243209;23;20044;-73
2022/02/19 02:43:51;;;;;;;3.85;3.55;;;;;;;;;;6243776;23;20012;-74
2022/02/19 02:46:17;;;;;;;3.50;2.92;;;;;;;;;;6245615;22;20008;-73
2022/02/19 02:48:43;;;;;;;5.35;3.20;;;;;;;;;;6245672;23;20024;-73
2022/02/19 02:51:11;;;;;;;3.42;3.13;;;;;;;;;;6245265;23;20066;-74
2022/02/19 02:53:37;;;;;;;2.35;2.15;;;;;;;;;;6223726;23;20016;-73
2022/02/19 02:56:03;;;;;;;3.30;3.00;;;;;;;;;;6249921;23;20475;-74
2022/02/19 02:58:29;;;;;;;4.90;3.08;;;;;;;;;;6200122;22;20020;-73
2022/02/19 03:00:57;;;;;;;5.13;4.55;;;;;;;;;;6251364;22;20012;-74
2022/02/19 03:03:23;;;;;;;4.97;4.47;;;;;;;;;;6223528;22;20026;-71
2022/02/19 03:05:49;;;;;;;4.57;4.18;;;;;;;;;;6248916;22;20008;-73
2022/02/19 03:08:16;;;;;;;4.82;4.43;;;;;;;;;;6247836;22;20015;-71
2022/02/19 03:10:42;;;;;;;4.00;3.50;;;;;;;;;;6248503;22;20035;-72
2022/02/19 03:13:08;;;;;;;6.13;3.78;;;;;;;;;;6274686;22;20527;-73
2022/02/19 03:15:34;;;;;;;3.10;2.90;;;;;;;;;;6222789;22;20015;-71
2022/02/19 03:18:00;;;;;;;3.38;3.05;;;;;;;;;;6248444;22;20145;-72
2022/02/19 03:20:29;;;;;;;4.18;3.88;;;;;;;;;;6223166;22;20030;-72
2022/02/19 03:22:56;;;;;;;4.75;4.35;;;;;;;;;;6248786;22;20030;-72
2022/02/19 03:25:22;;;;;;;3.53;3.22;;;;;;;;;;6246783;22;20022;-72
2022/02/19 03:27:51;;;;;;;4.68;2.85;;;;;;;;;;6246602;22;20019;-72
2022/02/19 03:30:28;;;;;;;2.92;2.72;;;;;;;;;;6248368;22;20084;-72
2022/02/19 03:32:54;;;;;;;5.05;4.22;;;;;;;;;;6222934;22;20416;-72
2022/02/19 03:35:22;;;;;;;4.20;3.90;;;;;;;;;;6247052;22;20542;-72
2022/02/19 03:37:49;;;;;;;3.92;3.63;;;;;;;;;;6222362;22;20018;-72
2022/02/19 03:40:35;;;;;;;3.50;3.28;;;;;;;;;;6235901;22;20016;-73
2022/02/19 03:43:02;;;;;;;4.03;3.72;;;;;;;;;;6222377;22;20022;-72
2022/02/19 03:45:28;;;;;;;3.72;3.42;;;;;;;;;;6247650;22;20017;-73
2022/02/19 03:48:12;;;;;;;8.27;4.38;;;;;;;;;;6221257;22;20073;-73
2022/02/19 03:50:38;;;;;;;3.30;3.03;;;;;;;;;;6247016;22;20016;-75
2022/02/19 03:53:04;;;;;;;2.72;2.53;;;;;;;;;;6197041;22;20008;-73
2022/02/19 03:55:35;;;;;;;;;;;;;;;;;;6222501;22;20368;-72
2022/02/19 03:58:02;;;;;;;3.63;3.33;;;;;;;;;;6274281;22;19914;-73
2022/02/19 04:00:30;;;;;;;4.53;4.00;;;;;;;;;;6221874;22;20019;-73
2022/02/19 04:02:57;;;;;;;3.78;3.45;;;;;;;;;;6246799;22;20455;-72
2022/02/19 04:05:25;;;;;;;4.28;3.88;;;;;;;;;;6197462;22;20011;-71
2022/02/19 04:07:51;;;;;;;3.88;3.55;;;;;;;;;;6196928;22;20047;-72
2022/02/19 04:10:21;;;;;;;5.22;3.72;;;;;;;;;;6247359;22;20019;-72
2022/02/19 04:12:47;;;;;;;3.35;3.10;;;;;;;;;;6247535;22;20007;-72
2022/02/19 04:15:27;;;;;;;3.67;3.42;;;;;;;;;;6225121;22;20007;-75
2022/02/19 04:17:53;;;;;;;4.32;4.00;;;;;;;;;;6221956;22;20058;-73
2022/02/19 04:20:18;;;;;;;4.60;4.25;;;;;;;;;;6246350;22;20460;-73
2022/02/19 04:22:46;;;;;;;3.78;3.53;;;;;;;;;;6246605;22;20090;-73
2022/02/19 04:25:12;;;;;;;4.50;4.03;;;;;;;;;;6220785;22;20094;-72
2022/02/19 04:27:39;;;;;;;4.25;3.90;;;;;;;;;;6246519;22;20031;-72
2022/02/19 04:30:07;;;;;;;4.05;3.75;;;;;;;;;;6221514;22;20035;-73
2022/02/19 04:32:36;;;;;;;4.18;3.88;;;;;;;;;;6221927;22;20012;-72
2022/02/19 04:35:04;;;;;;;5.00;4.60;;;;;;;;;;6247220;22;20467;-72
2022/02/19 04:37:35;;;;;;;6.80;4.15;;;;;;;;;;6222356;22;20014;-72
2022/02/19 04:40:02;;;;;;;5.88;3.92;;;;;;;;;;6247207;22;20011;-73
2022/02/19 04:42:32;;;;;;;7.07;3.78;;;;;;;;;;6247409;22;20016;-73
2022/02/19 04:45:09;;;;;;;6.38;4.18;;;;;;;;;;6224303;22;20007;-73
2022/02/19 04:47:38;;;;;;;4.03;3.72;;;;;;;;;;6248229;22;20008;-72
2022/02/19 04:50:05;;;;;;;4.72;4.32;;;;;;;;;;6222677;22;20372;-72
2022/02/19 04:52:31;;;;;;;4.97;3.65;;;;;;;;;;6247942;22;20012;-73
2022/02/19 04:54:57;;;;;;;4.22;3.38;;;;;;;;;;6248464;22;20018;-72
2022/02/19 04:57:24;;;;;;;4.88;4.47;;;;;;;;;;6197337;22;20102;-72
2022/02/19 04:59:50;;;;;;;5.47;4.05;;;;;;;;;;6221845;22;20054;-73
2022/02/19 05:02:20;;;;;;;5.25;4.75;;;;;;;;;;6246319;22;20012;-72
2022/02/19 05:04:48;;;;;;;2.90;2.80;;;;;;;;;;6247793;22;20517;-71
2022/02/19 05:07:21;;;;;;;5.20;4.45;;;;;;;;;;6246564;22;20055;-72
2022/02/19 05:09:48;;;;;;;7.82;5.82;;;;;;;;;;6247599;22;20023;-72
2022/02/19 05:12:15;;;;;;;3.78;3.40;;;;;;;;;;6247367;22;20007;-73
2022/02/19 05:14:44;;;;;;;4.38;4.00;;;;;;;;;;6247513;22;20016;-73
2022/02/19 05:17:30;;;;;;;4.05;3.75;;;;;;;;;;6225569;22;20046;-72
2022/02/19 05:20:02;;;;;;;5.32;4.82;;;;;;;;;;6246832;22;20456;-72
2022/02/19 05:22:32;;;;;;;5.53;4.13;;;;;;;;;;6222531;22;20018;-73
2022/02/19 05:24:58;;;;;;;4.63;3.20;;;;;;;;;;6197356;22;20102;-73
2022/02/19 05:27:24;;;;;;;3.88;3.60;;;;;;;;;;6247053;22;20398;-73
2022/02/19 05:29:54;;;;;;;4.07;3.67;;;;;;;;;;6222482;22;20027;-73
2022/02/19 05:32:21;;;;;;;4.95;4.55;;;;;;;;;;6220923;22;20014;-73
2022/02/19 05:34:56;;;;;;;4.78;4.38;;;;;;;;;;6246861;22;20444;-74
2022/02/19 05:37:22;;;;;;;4.97;4.47;;;;;;;;;;6222286;22;20011;-73
2022/02/19 05:39:51;;;;;;;5.80;4.30;;;;;;;;;;6246286;22;20019;-72
2022/02/19 05:42:19;;;;;;;3.58;2.75;;;;;;;;;;6244501;22;20467;-72
2022/02/19 05:44:49;;;;;;;6.07;5.50;;;;;;;;;;6246053;22;20096;-72
2022/02/19 05:47:19;;;;;;;3.75;3.45;;;;;;;;;;6245835;22;20643;-72
2022/02/19 05:50:03;;;;;;;3.42;3.22;;;;;;;;;;6246415;22;20047;-73
2022/02/19 05:52:43;;;;;;;3.80;3.47;;;;;;;;;;6245716;22;20022;-70
2022/02/19 05:55:24;;;;;;;4.45;4.05;;;;;;;;;;6223565;22;20023;-71
2022/02/19 05:57:50;;;;;;;3.78;3.47;;;;;;;;;;6245396;22;20011;-70
2022/02/19 06:00:18;;;;;;;3.53;2.80;;;;;;;;;;6220181;22;20403;-70
2022/02/19 06:02:48;;;;;;;4.15;3.78;;;;;;;;;;6264706;22;20026;-72
2022/02/19 06:05:14;;;;;;;3.95;3.55;;;;;;;;;;6242883;22;20020;-73
2022/02/19 06:07:44;;;;;;;4.40;4.00;;;;;;;;;;6270428;22;20452;-72
2022/02/19 06:10:11;;;;;;;5.97;3.22;;;;;;;;;;6217133;22;20023;-72
2022/02/19 06:12:38;;;;;;;5.22;3.45;;;;;;;;;;6217532;22;20019;-72
2022/02/19 06:15:14;;;;;;;4.85;4.38;;;;;;;;;;6242645;22;20508;-72
2022/02/19 06:18:05;;;;;;;5.60;3.55;;;;;;;;;;6221139;22;20364;-72
2022/02/19 06:20:34;;;;;;;4.63;4.18;;;;;;;;;;6217904;22;20084;-73
2022/02/19 06:23:01;;;;;;;4.15;3.83;;;;;;;;;;6217655;22;20361;-73
2022/02/19 06:25:27;;;;;;;4.50;3.47;;;;;;;;;;6270089;22;20011;-72
2022/02/19 06:27:58;;;;;;;4.93;4.22;;;;;;;;;;6243619;22;20007;-72
2022/02/19 06:30:27;;;;;;;4.60;4.20;;;;;;;;;;6242990;22;20474;-73
2022/02/19 06:32:58;;;;;;;;;;;;;;;;;;6194317;22;20020;-73
2022/02/19 06:35:26;;;;;;;3.67;2.95;;;;;;;;;;6242770;22;19952;-72
2022/02/19 06:38:02;;;;;;;3.63;3.33;;;;;;;;;;6243100;22;20008;-71
2022/02/19 06:40:29;;;;;;;4.38;3.25;;;;;;;;;;6193516;22;20016;-72
2022/02/19 06:42:55;;;;;;;4.15;3.58;;;;;;;;;;6193650;22;20785;-71
2022/02/19 06:45:23;;;;;;;4.65;3.53;;;;;;;;;;6194807;22;20023;-71
2022/02/19 06:47:55;;;;;;;3.25;3.00;;;;;;;;;;6242689;22;20486;-70
2022/02/19 06:50:24;;;;;;;3.80;3.47;;;;;;;;;;6268117;22;20137;-71
2022/02/19 06:52:52;;;;;;;4.88;3.42;;;;;;;;;;6216550;22;20101;-72
2022/02/19 06:55:20;;;;;;;3.35;3.05;;;;;;;;;;6240114;22;20018;-72
2022/02/19 06:57:47;;;;;;;3.80;3.40;;;;;;;;;;6215131;22;20008;-72
2022/02/19 07:00:14;;;;;;;3.70;3.38;;;;;;;;;;6190821;22;20601;-71
2022/02/19 07:02:44;;;;;;;3.37;3.17;;;;;;;;;;6242544;22;20016;-72
2022/02/19 07:05:10;;;;;;;3.55;3.25;;;;;;;;;;6241748;22;20242;-71
2022/02/19 07:07:59;;;;;;;3.90;3.60;;;;;;;;;;6191956;22;20015;-71
2022/02/19 07:10:27;;;;;;;4.55;3.47;;;;;;;;;;6216258;22;20024;-71
2022/02/19 07:12:55;;;;;;;4.00;3.50;;;;;;;;;;6243177;22;20077;-71
2022/02/19 07:15:24;;;;;;;3.50;3.20;;;;;;;;;;6242259;22;20023;-72
2022/02/19 07:18:18;;;;;;;3.28;3.08;;;;;;;;;;6273652;22;20008;-72
2022/02/19 07:21:06;;;;;;;2.63;2.53;;;;;;;;;;6246649;22;20018;-71
2022/02/19 07:23:32;;;;;;;7.63;3.95;;;;;;;;;;6219873;22;20019;-72
2022/02/19 07:26:00;;;;;;;3.53;3.22;;;;;;;;;;6247288;22;20452;-71
2022/02/19 07:28:28;;;;;;;8.10;4.03;;;;;;;;;;6246689;22;20046;-71
2022/02/19 07:30:55;;;;;;;7.00;6.07;;;;;;;;;;6221662;22;20250;-71
2022/02/19 07:33:21;;;;;;;3.45;3.15;;;;;;;;;;6273762;22;20033;-71
2022/02/19 07:35:52;;;;;;;6.05;4.57;;;;;;;;;;6221402;22;20022;-72
2022/02/19 07:38:21;;;;;;;5.70;3.83;;;;;;;;;;6246785;22;20105;-72
2022/02/19 07:40:47;;;;;;;4.32;4.03;;;;;;;;;;6222090;22;20007;-71
2022/02/19 07:43:14;;;;;;;4.30;3.88;;;;;;;;;;6246622;22;20360;-71
2022/02/19 07:45:59;;;;;;;4.47;4.10;;;;;;;;;;6274155;22;20039;-71
2022/02/19 07:48:44;;;;;;;4.40;4.03;;;;;;;;;;6274022;22;20091;-71
2022/02/19 07:59:57;;;;;;;4.78;3.08;;;;;;;;;;6248645;22;20015;-71
2022/02/19 08:02:29;;;;;;;3.83;3.45;;;;;;;;;;6248906;22;20031;-71
2022/02/19 08:04:56;;;;;;;3.60;2.88;;;;;;;;;;6247335;22;20011;-72
2022/02/19 08:07:22;;;;;;;3.58;3.35;;;;;;;;;;6221089;22;20012;-71
2022/02/19 08:09:48;;;;;;;6.25;3.30;;;;;;;;;;6246410;22;20016;-71
2022/02/19 08:12:14;;;;;;;3.45;3.15;;;;;;;;;;6246541;22;20012;-72
2022/02/19 08:14:40;;;;;;;3.78;3.45;;;;;;;;;;6245751;22;20015;-71
2022/02/19 08:17:06;;;;;;;3.20;2.92;;;;;;;;;;6273474;22;20019;-71
2022/02/19 08:19:32;;;;;;;3.65;3.35;;;;;;;;;;6245797;22;20011;-71
2022/02/19 08:21:59;;;;;;;3.40;3.00;;;;;;;;;;6273769;22;20020;-71
2022/02/19 08:24:25;;;;;;;3.35;3.05;;;;;;;;;;6195714;22;20406;-71
2022/02/19 08:26:51;;;;;;;4.13;3.33;;;;;;;;;;6273799;22;20012;-71
2022/02/19 08:29:17;;;;;;;3.53;3.22;;;;;;;;;;6273701;22;20028;-72
2022/02/19 08:31:44;;;;;;;3.20;2.90;;;;;;;;;;6273507;22;20027;-72
2022/02/19 08:34:10;;;;;;;3.42;3.22;;;;;;;;;;6246491;22;20055;-72
2022/02/19 08:36:36;;;;;;;3.08;2.88;;;;;;;;;;6245810;22;20061;-72
2022/02/19 08:39:03;;;;;;;3.00;2.70;;;;;;;;;;6221628;22;20016;-72
2022/02/19 08:41:28;;;;;;;5.20;3.17;;;;;;;;;;6275004;22;20011;-73
2022/02/19 08:43:57;;;;;;;3.30;3.05;;;;;;;;;;6198110;22;20011;-72
2022/02/19 08:46:23;;;;;;;3.50;3.30;;;;;;;;;;6273859;22;20098;-72
2022/02/19 08:48:52;;;;;;;3.53;3.20;;;;;;;;;;6273423;22;20459;-71
2022/02/19 08:51:18;;;;;;;2.70;2.50;;;;;;;;;;6273272;22;20014;-71
2022/02/19 08:53:44;;;;;;;3.67;3.42;;;;;;;;;;6273054;22;20655;-72
2022/02/19 08:56:10;;;;;;;3.33;3.13;;;;;;;;;;6221370;22;20032;-72
2022/02/19 08:58:36;;;;;;;2.70;2.50;;;;;;;;;;6272577;22;20478;-72
2022/02/19 09:01:02;;;;;;;4.00;3.55;;;;;;;;;;6246276;22;20080;-71
2022/02/19 09:03:30;;;;;;;3.78;3.08;;;;;;;;;;6272817;22;20011;-72
2022/02/19 09:05:57;;;;;;;4.03;2.90;;;;;;;;;;6273017;22;20458;-71
2022/02/19 09:08:23;;;;;;;3.25;2.80;;;;;;;;;;6272897;22;20011;-70
2022/02/19 09:10:48;;;;;;;3.38;3.08;;;;;;;;;;6245820;22;20094;-71
2022/02/19 09:13:14;;;;;;;2.75;2.38;;;;;;;;;;6245639;22;20396;-72
2022/02/19 09:15:42;;;;;;;2.40;2.30;;;;;;;;;;6245702;22;20102;-72
2022/02/19 09:18:08;;;;;;;3.15;2.85;;;;;;;;;;6245928;22;20037;-72
2022/02/19 09:20:34;;;;;;;5.28;2.80;;;;;;;;;;6245520;22;20019;-72
2022/02/19 09:23:00;;;;;;;3.30;3.00;;;;;;;;;;6272796;22;20014;-71
2022/02/19 09:25:26;;;;;;;2.75;2.55;;;;;;;;;;6220295;22;20012;-72
2022/02/19 09:27:52;;;;;;;3.00;2.38;;;;;;;;;;6272676;22;20091;-70
2022/02/19 09:30:18;;;;;;;2.63;2.42;;;;;;;;;;6220165;22;20023;-70
2022/02/19 09:32:45;;;;;;;3.60;3.03;;;;;;;;;;6244923;22;20047;-71
2022/02/19 09:35:12;;;;;;;2.92;2.70;;;;;;;;;;6272893;22;20039;-70
2022/02/19 09:37:38;;;;;;;2.53;2.25;;;;;;;;;;6272274;22;20499;-70
2022/02/19 09:40:05;;;;;;;2.83;2.60;;;;;;;;;;6245807;22;20456;-70
2022/02/19 09:42:30;;;;;;;2.97;2.70;;;;;;;;;;6245123;22;20018;-70
2022/02/19 09:44:57;;;;;;;2.45;2.30;;;;;;;;;;6272771;22;20011;-70
2022/02/19 09:47:27;;;;;;;2.80;2.53;;;;;;;;;;6245639;22;20007;-70
2022/02/19 09:49:54;;;;;;;5.28;2.53;;;;;;;;;;6271877;22;20023;-70
2022/02/19 09:52:19;;;;;;;3.10;2.80;;;;;;;;;;6272449;22;20356;-69
2022/02/19 09:54:45;;;;;;;2.97;2.47;;;;;;;;;;6219844;22;20044;-70
2022/02/19 09:57:11;;;;;;;2.45;2.25;;;;;;;;;;6245742;22;20007;-69
2022/02/19 09:59:37;;;;;;;3.65;2.92;;;;;;;;;;6244849;22;20110;-70
2022/02/19 10:02:04;;;;;;;3.20;2.75;;;;;;;;;;6272826;22;20019;-70
2022/02/19 10:04:31;;;;;;;3.33;3.03;;;;;;;;;;6271936;22;20607;-70
2022/02/19 10:06:57;;;;;;;2.70;2.50;;;;;;;;;;6245645;22;20012;-70
2022/02/19 10:09:24;;;;;;;5.05;2.78;;;;;;;;;;6272428;22;20023;-70
2022/02/19 10:11:50;;;;;;;2.58;2.38;;;;;;;;;;6272017;22;20053;-70
2022/02/19 10:14:26;;;;;;;2.92;2.65;;;;;;;;;;6240256;22;20020;-70
2022/02/19 10:17:13;;;;;;;2.78;2.38;;;;;;;;;;6217928;22;20032;-69
2022/02/19 10:20:01;;;;;;;2.50;2.30;;;;;;;;;;6271637;22;20012;-70
2022/02/19 10:22:28;;;;;;;2.97;2.65;;;;;;;;;;6272308;22;20011;-69
2022/02/19 10:24:58;;;;;;;2.60;2.40;;;;;;;;;;6271800;22;20012;-70
2022/02/19 10:27:43;;;;;;;2.13;2.00;;;;;;;;;;6271738;22;20362;-69
2022/02/19 10:30:09;;;;;;;2.72;2.53;;;;;;;;;;6244948;22;20405;-70
2022/02/19 10:32:51;;;;;;;3.00;2.80;;;;;;;;;;6245094;22;20051;-70
2022/02/19 10:35:17;;;;;;;3.72;3.28;;;;;;;;;;6271768;22;20020;-70
2022/02/19 10:37:47;;;;;;;4.25;2.70;;;;;;;;;;6244305;22;20039;-69
2022/02/19 10:40:25;;;;;;;2.83;2.63;;;;;;;;;;6219565;22;20091;-70
2022/02/19 10:42:53;;;;;;;3.47;3.17;;;;;;;;;;6271900;22;20015;-70
2022/02/19 10:45:19;;;;;;;2.90;2.70;;;;;;;;;;6272204;22;20542;-70
2022/02/19 10:47:45;;;;;;;3.08;2.88;;;;;;;;;;6272045;22;20022;-70
2022/02/19 10:50:11;;;;;;;3.15;2.95;;;;;;;;;;6272545;22;20031;-70
2022/02/19 10:52:38;;;;;;;3.15;2.85;;;;;;;;;;6271516;22;20038;-70
2022/02/19 10:55:08;;;;;;;3.60;3.28;;;;;;;;;;6245276;22;20081;-70
2022/02/19 10:57:37;;;;;;;3.15;2.92;;;;;;;;;;6219880;22;20020;-70
2022/02/19 11:00:11;;;;;;;3.28;3.00;;;;;;;;;;6245582;22;20011;-70
2022/02/19 11:02:38;;;;;;;3.35;2.90;;;;;;;;;;6273902;22;20008;-71
2022/02/19 11:05:06;;;;;;;3.75;3.35;;;;;;;;;;6242868;22;20016;-71
2022/02/19 11:07:31;;;;;;;2.50;2.30;;;;;;;;;;6273651;22;20014;-70
2022/02/19 11:09:57;;;;;;;2.50;2.38;;;;;;;;;;6274089;22;20103;-71
2022/02/19 11:12:23;;;;;;;3.25;3.05;;;;;;;;;;6221904;22;20683;-70
2022/02/19 11:14:49;;;;;;;2.58;2.38;;;;;;;;;;6273660;22;20069;-71
2022/02/19 11:17:15;;;;;;;3.08;2.88;;;;;;;;;;6221831;22;20081;-71
2022/02/19 11:19:41;;;;;;;3.72;3.47;;;;;;;;;;6273428;22;20451;-71
2022/02/19 11:22:07;;;;;;;3.35;3.15;;;;;;;;;;6274053;22;20364;-71
2022/02/19 11:24:33;;;;;;;3.55;3.17;;;;;;;;;;6246442;22;20023;-72
2022/02/19 11:27:01;;;;;;;4.60;3.30;;;;;;;;;;6221811;22;20077;-71
2022/02/19 11:29:26;;;;;;;3.13;2.90;;;;;;;;;;6241388;22;20035;-71
2022/02/19 11:31:52;;;;;;;3.17;2.97;;;;;;;;;;6241456;23;20464;-71
2022/02/19 11:34:22;;;;;;;3.47;3.28;;;;;;;;;;6242132;23;20016;-71
2022/02/19 11:36:48;;;;;;;3.20;3.00;;;;;;;;;;6244084;23;20388;-71
2022/02/19 11:39:13;;;;;;;4.63;4.25;;;;;;;;;;6217253;23;20020;-71
2022/02/19 11:41:42;;;;;;;5.45;4.75;;;;;;;;;;6242853;23;20014;-72
2022/02/19 11:44:21;;;;;;;4.18;3.53;;;;;;;;;;6241564;23;20019;-72
2022/02/19 11:46:47;;;;;;;3.58;3.25;;;;;;;;;;6242790;23;20012;-72
2022/02/19 11:49:26;;;;;;;5.70;5.28;;;;;;;;;;6242886;23;20364;-72
2022/02/19 11:52:01;;;;;;;7.03;6.32;;;;;;;;;;6241218;23;20548;-72
2022/02/19 11:54:27;;;;;;;5.60;4.65;;;;;;;;;;6241729;23;20012;-72
2022/02/19 11:56:53;;;;;;;5.13;4.72;;;;;;;;;;6243005;23;20036;-72
2022/02/19 11:59:21;;;;;;;8.50;4.82;;;;;;;;;;6243350;23;20031;-71
2022/02/19 12:02:17;;;;;;;3.47;3.17;;;;;;;;;;6241331;23;20039;-71
2022/02/19 12:04:43;;;;;;;5.10;4.70;;;;;;;;;;6182623;23;20138;-72
2022/02/19 12:07:10;;;;;;;4.32;3.92;;;;;;;;;;6242978;23;20103;-72
2022/02/19 12:09:55;;;;;;;6.03;4.45;;;;;;;;;;6242391;23;20031;-72
2022/02/19 12:12:21;;;;;;;6.95;6.25;;;;;;;;;;6242594;23;20360;-72
2022/02/19 12:14:53;;;;;;;5.82;5.32;;;;;;;;;;6191002;23;20018;-71
2022/02/19 12:17:20;;;;;;;5.38;4.70;;;;;;;;;;6243164;23;20077;-72
2022/02/19 12:19:53;;;;;;;5.85;4.32;;;;;;;;;;6239811;23;20008;-72
2022/02/19 12:22:38;;;;;;;4.80;4.50;;;;;;;;;;6216648;23;20012;-71
2022/02/19 12:25:05;;;;;;;7.05;4.72;;;;;;;;;;6241558;23;20473;-71
2022/02/19 12:27:30;;;;;;;6.90;6.30;;;;;;;;;;6237876;23;20043;-73
2022/02/19 12:30:15;;;;;;;5.85;5.45;;;;;;;;;;6180844;23;20058;-73
2022/02/19 12:32:51;;;;;;;4.85;4.10;;;;;;;;;;6238518;23;20016;-73
2022/02/19 12:35:17;;;;;;;5.70;5.22;;;;;;;;;;6239728;23;20015;-72
2022/02/19 12:37:43;;;;;;;5.38;4.97;;;;;;;;;;6213307;23;20020;-73
2022/02/19 12:40:14;;;;;;;8.40;6.20;;;;;;;;;;6240625;23;20016;-72
2022/02/19 12:42:44;;;;;;;5.70;5.30;;;;;;;;;;6239588;23;20019;-72
2022/02/19 12:45:10;;;;;;;4.68;4.38;;;;;;;;;;6239554;23;20376;-72
2022/02/19 12:47:36;;;;;;;5.13;4.72;;;;;;;;;;6213773;23;20012;-73
2022/02/19 12:50:03;;;;;;;4.70;4.30;;;;;;;;;;6212918;23;20024;-72
2022/02/19 12:52:29;;;;;;;5.65;5.15;;;;;;;;;;6188584;23;20019;-73
2022/02/19 12:54:55;;;;;;;6.38;5.88;;;;;;;;;;6240292;23;20039;-72
2022/02/19 12:57:22;;;;;;;5.03;4.60;;;;;;;;;;6239053;23;20365;-72
2022/02/19 12:59:48;;;;;;;4.75;4.38;;;;;;;;;;6237492;23;20070;-72
2022/02/19 13:02:33;;;;;;;5.20;4.80;;;;;;;;;;6239770;23;20091;-70
2022/02/19 13:05:02;;;;;;;7.25;6.57;;;;;;;;;;6214459;23;20023;-73
2022/02/19 13:07:29;;;;;;;5.57;5.18;;;;;;;;;;6240798;23;20008;-72
2022/02/19 13:09:57;;;;;;;7.05;6.35;;;;;;;;;;6237381;23;20024;-71
2022/02/19 13:12:50;;;;;;;6.50;6.00;;;;;;;;;;6212921;23;20065;-72
2022/02/19 13:15:16;;;;;;;5.65;5.28;;;;;;;;;;6233356;23;20043;-72
2022/02/19 13:17:42;;;;;;;4.45;4.18;;;;;;;;;;6212738;23;20023;-72
2022/02/19 13:20:08;;;;;;;6.45;4.25;;;;;;;;;;6187355;23;20011;-72
2022/02/19 13:22:35;;;;;;;4.80;4.47;;;;;;;;;;6238705;23;20051;-72
2022/02/19 13:25:02;;;;;;;5.13;4.63;;;;;;;;;;6239830;23;20008;-73
2022/02/19 13:27:29;;;;;;;4.97;4.57;;;;;;;;;;6240176;23;20090;-73
2022/02/19 13:29:58;;;;;;;5.40;4.90;;;;;;;;;;6186893;23;20024;-73
2022/02/19 13:32:26;;;;;;;5.00;4.60;;;;;;;;;;6240156;23;20012;-73
2022/02/19 13:34:52;;;;;;;3.63;3.33;;;;;;;;;;6212348;23;20408;-73
2022/02/19 13:37:18;;;;;;;5.53;4.63;;;;;;;;;;6240303;23;20014;-72
2022/02/19 13:39:44;;;;;;;4.68;4.38;;;;;;;;;;6236624;23;20068;-73
2022/02/19 13:42:10;;;;;;;5.63;5.22;;;;;;;;;;6237580;23;20019;-73
2022/02/19 13:44:43;;;;;;;4.28;3.88;;;;;;;;;;6238866;23;20012;-73
2022/02/19 13:47:09;;;;;;;4.55;4.25;;;;;;;;;;6212368;23;20086;-73
2022/02/19 13:49:36;;;;;;;4.50;4.10;;;;;;;;;;6243610;23;20020;-79
2022/02/19 13:52:02;;;;;;;4.57;4.18;;;;;;;;;;6193890;23;20012;-74
2022/02/19 13:54:37;;;;;;;4.35;4.05;;;;;;;;;;6211181;23;20065;-71
2022/02/19 13:57:15;;;;;;;5.63;5.13;;;;;;;;;;6241099;23;20060;-71
2022/02/19 13:59:56;;;;;;;5.47;5.18;;;;;;;;;;6212386;23;20511;-71
2022/02/19 14:02:23;;;;;;;7.32;6.13;;;;;;;;;;6240398;23;20012;-71
2022/02/19 14:04:55;;;;;;;5.32;4.95;;;;;;;;;;6212768;23;20019;-72
2022/02/19 14:07:21;;;;;;;6.30;5.90;;;;;;;;;;6239863;23;20008;-71
2022/02/19 14:10:03;;;;;;;8.27;5.68;;;;;;;;;;6211835;23;20020;-71
2022/02/19 14:12:35;;;;;;;5.82;5.43;;;;;;;;;;6213135;23;20012;-71
2022/02/19 14:15:02;;;;;;;5.22;4.88;;;;;;;;;;6239644;23;20012;-72
2022/02/19 14:17:42;;;;;;;5.15;4.75;;;;;;;;;;6213522;23;20344;-71
2022/02/19 14:20:10;;;;;;;6.03;5.45;;;;;;;;;;6211823;23;20012;-71
2022/02/19 14:22:43;;;;;;;5.28;4.93;;;;;;;;;;6211717;23;20508;-71
2022/02/19 14:25:16;;;;;;;6.30;5.70;;;;;;;;;;6239627;23;20019;-70
2022/02/19 14:27:52;;;;;;;5.35;4.95;;;;;;;;;;6212989;23;20012;-71
2022/02/19 14:30:20;;;;;;;6.70;6.15;;;;;;;;;;6162677;23;20020;-70
2022/02/19 14:32:47;;;;;;;5.78;5.38;;;;;;;;;;6239604;23;20036;-70
2022/02/19 14:35:13;;;;;;;6.43;5.82;;;;;;;;;;6187369;23;20047;-70
2022/02/19 14:37:40;;;;;;;5.68;5.20;;;;;;;;;;6241259;23;20015;-70
2022/02/19 14:40:06;;;;;;;4.82;4.53;;;;;;;;;;6190361;23;20020;-70
2022/02/19 14:42:32;;;;;;;6.28;5.78;;;;;;;;;;6214972;23;20012;-71
2022/02/19 14:44:58;;;;;;;5.32;4.82;;;;;;;;;;6215528;23;20016;-71
2022/02/19 14:47:24;;;;;;;5.85;5.25;;;;;;;;;;6216401;23;20016;-71
2022/02/19 14:49:49;;;;;;;5.05;4.65;;;;;;;;;;6216919;23;20034;-71
2022/02/19 14:52:15;;;;;;;6.18;5.68;;;;;;;;;;6217654;23;20039;-71
2022/02/19 14:54:42;;;;;;;7.82;5.63;;;;;;;;;;6244710;23;20008;-71
2022/02/19 14:57:08;;;;;;;7.47;6.97;;;;;;;;;;6242322;23;20008;-71
2022/02/19 14:59:34;;;;;;;6.93;6.43;;;;;;;;;;6240625;23;20016;-71
2022/02/19 15:02:00;;;;;;;6.43;5.80;;;;;;;;;;6214670;23;20016;-71
2022/02/19 15:04:26;;;;;;;6.00;5.50;;;;;;;;;;6241469;23;20012;-70
2022/02/19 15:06:52;;;;;;;5.10;4.63;;;;;;;;;;6214269;23;20016;-71
2022/02/19 15:09:19;;;;;;;7.20;6.53;;;;;;;;;;6241290;23;20074;-71
2022/02/19 15:11:45;;;;;;;5.95;5.45;;;;;;;;;;6213643;23;20007;-70
2022/02/19 15:14:11;;;;;;;7.60;6.80;;;;;;;;;;6241415;23;20028;-70
2022/02/19 15:16:37;;;;;;;6.57;5.90;;;;;;;;;;6188669;23;20034;-72
2022/02/19 15:19:03;;;;;;;6.55;6.15;;;;;;;;;;6189745;23;20400;-71
2022/02/19 15:21:29;;;;;;;5.75;5.35;;;;;;;;;;6241116;23;20035;-72
2022/02/19 15:23:55;;;;;;;7.15;6.60;;;;;;;;;;6239671;23;20693;-72
2022/02/19 15:26:21;;;;;;;8.00;7.28;;;;;;;;;;6240765;23;20016;-72
2022/02/19 15:28:47;;;;;;;8.88;8.18;;;;;;;;;;6212707;23;20025;-70
2022/02/19 15:31:13;;;;;;;7.57;7.07;;;;;;;;;;6214035;23;20043;-70
2022/02/19 15:33:40;;;;;;;8.80;7.95;;;;;;;;;;6239961;23;20368;-72
2022/02/19 15:36:06;;;;;;;7.95;7.35;;;;;;;;;;6213552;23;20094;-72
2022/02/19 15:38:33;;;;;;;6.90;6.32;;;;;;;;;;6214210;23;20044;-72
2022/02/19 15:40:59;;;;;;;6.43;6.03;;;;;;;;;;6213934;23;20019;-71
2022/02/19 15:43:25;;;;;;;7.43;6.93;;;;;;;;;;6240074;23;20012;-72
2022/02/19 15:45:51;;;;;;;7.72;7.13;;;;;;;;;;6238709;23;20414;-73
2022/02/19 15:48:18;;;;;;;8.38;7.10;;;;;;;;;;6212062;23;20095;-72
2022/02/19 15:50:44;;;;;;;5.97;5.18;;;;;;;;;;6187412;23;20043;-72
2022/02/19 15:53:10;;;;;;;6.25;5.82;;;;;;;;;;6212702;23;20383;-72
2022/02/19 15:55:36;;;;;;;7.55;6.85;;;;;;;;;;6240740;23;20032;-71